sensor_id;sensor_type;location;lat;lon;timestamp;pressure;altitude;pressure_sealevel;temperature;humidity
57594;BME280;43423;46.510;6.686;2024-03-29T00:01:23;94725.13;;;9.28;61.43
57594;BME280;43423;46.510;6.686;2024-03-29T00:03:54;94720.59;;;9.00;62.69
57594;BME280;43423;46.510;6.686;2024-03-29T00:06:19;94722.22;;;9.14;60.78
57594;BME280;43423;46.510;6.686;2024-03-29T00:08:46;94727.06;;;9.03;63.75
57594;BME280;43423;46.510;6.686;2024-03-29T00:11:11;94714.44;;;8.94;64.17
57594;BME280;43423;46.510;6.686;2024-03-29T00:13:37;94711.44;;;8.92;63.91
57594;BME280;43423;46.510;6.686;2024-03-29T00:16:02;94708.19;;;8.93;63.80
57594;BME280;43423;46.510;6.686;2024-03-29T00:18:28;94694.53;;;8.88;63.21
57594;BME280;43423;46.510;6.686;2024-03-29T00:20:54;94692.34;;;8.81;62.23
57594;BME280;43423;46.510;6.686;2024-03-29T00:23:20;94693.97;;;8.95;60.28
57594;BME280;43423;46.510;6.686;2024-03-29T00:25:45;94690.91;;;9.04;60.05
57594;BME280;43423;46.510;6.686;2024-03-29T00:28:11;94691.38;;;9.08;60.29
57594;BME280;43423;46.510;6.686;2024-03-29T00:30:36;94686.84;;;9.16;61.37
57594;BME280;43423;46.510;6.686;2024-03-29T00:33:02;94687.09;;;9.13;59.97
57594;BME280;43423;46.510;6.686;2024-03-29T00:35:28;94667.69;;;9.11;60.51
57594;BME280;43423;46.510;6.686;2024-03-29T00:37:53;94676.13;;;9.13;59.12
57594;BME280;43423;46.510;6.686;2024-03-29T00:40:19;94673.44;;;9.07;58.47
57594;BME280;43423;46.510;6.686;2024-03-29T00:42:45;94656.19;;;8.82;58.69
57594;BME280;43423;46.510;6.686;2024-03-29T00:45:11;94658.94;;;8.82;59.11
57594;BME280;43423;46.510;6.686;2024-03-29T00:47:37;94659.69;;;9.13;58.52
57594;BME280;43423;46.510;6.686;2024-03-29T00:50:02;94665.56;;;9.22;58.39
57594;BME280;43423;46.510;6.686;2024-03-29T00:52:28;94653.25;;;9.35;58.53
57594;BME280;43423;46.510;6.686;2024-03-29T00:54:54;94650.00;;;9.06;56.23
57594;BME280;43423;46.510;6.686;2024-03-29T00:57:20;94639.78;;;9.07;55.00
57594;BME280;43423;46.510;6.686;2024-03-29T00:59:46;94651.81;;;8.98;54.68
57594;BME280;43423;46.510;6.686;2024-03-29T01:02:12;94644.09;;;9.02;53.79
57594;BME280;43423;46.510;6.686;2024-03-29T01:04:37;94640.44;;;9.18;52.60
57594;BME280;43423;46.510;6.686;2024-03-29T01:07:05;94648.47;;;9.41;52.24
57594;BME280;43423;46.510;6.686;2024-03-29T01:09:31;94646.50;;;9.60;52.62
57594;BME280;43423;46.510;6.686;2024-03-29T01:11:57;94641.31;;;9.57;51.73
57594;BME280;43423;46.510;6.686;2024-03-29T01:14:22;94636.06;;;9.34;51.86
57594;BME280;43423;46.510;6.686;2024-03-29T01:16:48;94631.44;;;9.48;48.76
57594;BME280;43423;46.510;6.686;2024-03-29T01:19:13;94628.81;;;9.56;49.41
57594;BME280;43423;46.510;6.686;2024-03-29T01:21:39;94632.88;;;9.73;47.45
57594;BME280;43423;46.510;6.686;2024-03-29T01:24:05;94634.97;;;9.86;47.72
57594;BME280;43423;46.510;6.686;2024-03-29T01:26:31;94627.63;;;9.75;52.67
57594;BME280;43423;46.510;6.686;2024-03-29T01:28:56;94626.22;;;9.88;50.07
57594;BME280;43423;46.510;6.686;2024-03-29T01:31:23;94616.72;;;9.89;51.31
57594;BME280;43423;46.510;6.686;2024-03-29T01:33:49;94606.34;;;9.82;50.34
57594;BME280;43423;46.510;6.686;2024-03-29T01:36:15;94610.03;;;9.84;50.63
57594;BME280;43423;46.510;6.686;2024-03-29T01:38:40;94618.06;;;9.82;49.80
57594;BME280;43423;46.510;6.686;2024-03-29T01:41:06;94633.63;;;9.93;51.08
57594;BME280;43423;46.510;6.686;2024-03-29T01:43:32;94625.94;;;9.91;51.79
57594;BME280;43423;46.510;6.686;2024-03-29T01:45:58;94611.81;;;9.82;52.53
57594;BME280;43423;46.510;6.686;2024-03-29T01:48:24;94610.19;;;9.73;49.83
57594;BME280;43423;46.510;6.686;2024-03-29T01:50:53;94622.72;;;9.68;50.70
57594;BME280;43423;46.510;6.686;2024-03-29T01:53:19;94619.78;;;9.61;53.58
57594;BME280;43423;46.510;6.686;2024-03-29T01:55:46;94630.88;;;9.74;50.77
57594;BME280;43423;46.510;6.686;2024-03-29T01:58:12;94634.81;;;9.78;50.11
57594;BME280;43423;46.510;6.686;2024-03-29T02:01:04;94633.22;;;9.89;50.22
57594;BME280;43423;46.510;6.686;2024-03-29T02:03:31;94636.16;;;9.91;51.68
57594;BME280;43423;46.510;6.686;2024-03-29T02:05:58;94640.91;;;9.90;51.40
57594;BME280;43423;46.510;6.686;2024-03-29T02:08:24;94642.72;;;9.88;50.13
57594;BME280;43423;46.510;6.686;2024-03-29T02:10:51;94625.72;;;9.89;52.23
57594;BME280;43423;46.510;6.686;2024-03-29T02:13:16;94638.00;;;9.83;52.00
57594;BME280;43423;46.510;6.686;2024-03-29T02:15:42;94633.03;;;9.81;52.84
57594;BME280;43423;46.510;6.686;2024-03-29T02:18:08;94637.63;;;9.73;52.96
57594;BME280;43423;46.510;6.686;2024-03-29T02:20:34;94635.53;;;9.60;52.43
57594;BME280;43423;46.510;6.686;2024-03-29T02:23:17;94632.75;;;9.85;51.69
57594;BME280;43423;46.510;6.686;2024-03-29T02:25:44;94630.69;;;9.91;54.15
57594;BME280;43423;46.510;6.686;2024-03-29T02:28:09;94614.22;;;9.91;55.13
57594;BME280;43423;46.510;6.686;2024-03-29T02:30:35;94623.25;;;9.86;55.59
57594;BME280;43423;46.510;6.686;2024-03-29T02:33:01;94630.81;;;9.79;55.72
57594;BME280;43423;46.510;6.686;2024-03-29T02:35:27;94621.81;;;9.79;55.67
57594;BME280;43423;46.510;6.686;2024-03-29T02:37:53;94630.34;;;9.75;56.11
57594;BME280;43423;46.510;6.686;2024-03-29T02:40:19;94630.41;;;9.70;54.95
57594;BME280;43423;46.510;6.686;2024-03-29T02:42:45;94633.47;;;9.66;54.08
57594;BME280;43423;46.510;6.686;2024-03-29T02:45:11;94625.75;;;9.65;55.45
57594;BME280;43423;46.510;6.686;2024-03-29T02:47:36;94627.69;;;9.45;56.64
57594;BME280;43423;46.510;6.686;2024-03-29T02:50:02;94628.34;;;9.57;57.02
57594;BME280;43423;46.510;6.686;2024-03-29T02:52:28;94628.19;;;9.68;56.09
57594;BME280;43423;46.510;6.686;2024-03-29T02:54:55;94632.78;;;9.60;54.93
57594;BME280;43423;46.510;6.686;2024-03-29T02:57:20;94630.16;;;9.73;56.87
57594;BME280;43423;46.510;6.686;2024-03-29T02:59:46;94637.16;;;9.69;58.10
57594;BME280;43423;46.510;6.686;2024-03-29T03:02:11;94645.19;;;9.67;57.55
57594;BME280;43423;46.510;6.686;2024-03-29T03:04:37;94652.19;;;9.62;58.83
57594;BME280;43423;46.510;6.686;2024-03-29T03:07:03;94654.00;;;9.60;60.01
57594;BME280;43423;46.510;6.686;2024-03-29T03:09:47;94647.72;;;9.65;59.21
57594;BME280;43423;46.510;6.686;2024-03-29T03:12:31;94653.25;;;9.59;58.55
57594;BME280;43423;46.510;6.686;2024-03-29T03:14:57;94650.13;;;9.49;58.90
57594;BME280;43423;46.510;6.686;2024-03-29T03:17:23;94641.22;;;9.62;59.69
57594;BME280;43423;46.510;6.686;2024-03-29T03:19:51;94645.97;;;9.62;59.52
57594;BME280;43423;46.510;6.686;2024-03-29T03:22:17;94644.44;;;9.66;58.01
57594;BME280;43423;46.510;6.686;2024-03-29T03:24:43;94653.38;;;9.72;55.21
57594;BME280;43423;46.510;6.686;2024-03-29T03:27:08;94642.59;;;9.74;57.04
57594;BME280;43423;46.510;6.686;2024-03-29T03:29:34;94641.50;;;9.83;58.84
57594;BME280;43423;46.510;6.686;2024-03-29T03:31:59;94635.50;;;9.85;59.77
57594;BME280;43423;46.510;6.686;2024-03-29T03:34:25;94636.00;;;9.83;59.11
57594;BME280;43423;46.510;6.686;2024-03-29T03:36:51;94638.28;;;9.79;57.77
57594;BME280;43423;46.510;6.686;2024-03-29T03:39:16;94639.50;;;9.84;59.60
57594;BME280;43423;46.510;6.686;2024-03-29T03:41:42;94638.81;;;9.77;61.50
57594;BME280;43423;46.510;6.686;2024-03-29T03:44:08;94640.56;;;9.56;61.27
57594;BME280;43423;46.510;6.686;2024-03-29T03:46:33;94633.09;;;9.75;61.85
57594;BME280;43423;46.510;6.686;2024-03-29T03:48:59;94612.84;;;9.78;59.87
57594;BME280;43423;46.510;6.686;2024-03-29T03:51:24;94603.66;;;9.76;57.57
57594;BME280;43423;46.510;6.686;2024-03-29T03:53:50;94611.75;;;9.87;59.81
57594;BME280;43423;46.510;6.686;2024-03-29T03:56:15;94615.47;;;9.90;57.30
57594;BME280;43423;46.510;6.686;2024-03-29T03:58:44;94604.72;;;9.92;58.52
57594;BME280;43423;46.510;6.686;2024-03-29T04:01:09;94610.03;;;9.84;57.54
57594;BME280;43423;46.510;6.686;2024-03-29T04:03:35;94606.66;;;9.97;59.12
57594;BME280;43423;46.510;6.686;2024-03-29T04:06:04;94610.03;;;10.03;59.13
57594;BME280;43423;46.510;6.686;2024-03-29T04:08:30;94621.78;;;10.03;57.87
57594;BME280;43423;46.510;6.686;2024-03-29T04:10:56;94613.63;;;9.98;58.53
57594;BME280;43423;46.510;6.686;2024-03-29T04:13:22;94596.25;;;9.90;58.15
57594;BME280;43423;46.510;6.686;2024-03-29T04:15:47;94600.69;;;9.74;55.77
57594;BME280;43423;46.510;6.686;2024-03-29T04:18:13;94607.97;;;9.90;55.93
57594;BME280;43423;46.510;6.686;2024-03-29T04:20:39;94608.72;;;10.10;52.88
57594;BME280;43423;46.510;6.686;2024-03-29T04:23:06;94614.59;;;10.19;52.75
57594;BME280;43423;46.510;6.686;2024-03-29T04:25:31;94588.06;;;10.22;55.13
57594;BME280;43423;46.510;6.686;2024-03-29T04:27:58;94579.47;;;9.93;54.58
57594;BME280;43423;46.510;6.686;2024-03-29T04:30:24;94587.47;;;10.10;53.19
57594;BME280;43423;46.510;6.686;2024-03-29T04:32:50;94575.47;;;10.13;52.68
57594;BME280;43423;46.510;6.686;2024-03-29T04:35:15;94576.00;;;10.30;51.94
57594;BME280;43423;46.510;6.686;2024-03-29T04:37:41;94582.31;;;10.57;50.08
57594;BME280;43423;46.510;6.686;2024-03-29T04:40:07;94581.59;;;10.57;53.58
57594;BME280;43423;46.510;6.686;2024-03-29T04:42:32;94575.50;;;10.77;53.56
57594;BME280;43423;46.510;6.686;2024-03-29T04:44:58;94566.31;;;10.75;50.46
57594;BME280;43423;46.510;6.686;2024-03-29T04:47:24;94575.19;;;10.81;49.60
57594;BME280;43423;46.510;6.686;2024-03-29T04:49:49;94574.66;;;10.69;48.70
57594;BME280;43423;46.510;6.686;2024-03-29T04:52:15;94566.81;;;10.73;48.68
57594;BME280;43423;46.510;6.686;2024-03-29T04:54:41;94561.56;;;10.88;49.05
57594;BME280;43423;46.510;6.686;2024-03-29T04:57:09;94528.56;;;10.75;49.94
57594;BME280;43423;46.510;6.686;2024-03-29T04:59:35;94532.41;;;10.85;48.50
57594;BME280;43423;46.510;6.686;2024-03-29T05:02:00;94532.50;;;10.93;48.17
57594;BME280;43423;46.510;6.686;2024-03-29T05:04:26;94498.66;;;11.11;44.88
57594;BME280;43423;46.510;6.686;2024-03-29T05:06:53;94540.44;;;11.36;43.28
57594;BME280;43423;46.510;6.686;2024-03-29T05:09:19;94540.56;;;11.31;43.86
57594;BME280;43423;46.510;6.686;2024-03-29T05:11:44;94535.03;;;11.44;42.59
57594;BME280;43423;46.510;6.686;2024-03-29T05:14:12;94554.75;;;11.48;43.22
57594;BME280;43423;46.510;6.686;2024-03-29T05:16:40;94515.00;;;11.70;41.02
57594;BME280;43423;46.510;6.686;2024-03-29T05:19:06;94512.91;;;11.63;40.75
57594;BME280;43423;46.510;6.686;2024-03-29T05:21:32;94532.28;;;11.57;42.09
57594;BME280;43423;46.510;6.686;2024-03-29T05:23:57;94526.28;;;11.45;42.37
57594;BME280;43423;46.510;6.686;2024-03-29T05:26:23;94519.91;;;11.37;42.93
57594;BME280;43423;46.510;6.686;2024-03-29T05:28:49;94532.81;;;11.42;43.34
57594;BME280;43423;46.510;6.686;2024-03-29T05:31:15;94538.88;;;11.54;43.12
57594;BME280;43423;46.510;6.686;2024-03-29T05:33:41;94554.63;;;11.54;42.52
57594;BME280;43423;46.510;6.686;2024-03-29T05:36:07;94565.22;;;11.63;40.71
57594;BME280;43423;46.510;6.686;2024-03-29T05:38:36;94555.47;;;11.62;40.21
57594;BME280;43423;46.510;6.686;2024-03-29T05:41:02;94556.22;;;11.62;40.18
57594;BME280;43423;46.510;6.686;2024-03-29T05:43:27;94551.88;;;11.54;40.49
57594;BME280;43423;46.510;6.686;2024-03-29T05:45:53;94534.06;;;11.68;39.89
57594;BME280;43423;46.510;6.686;2024-03-29T05:48:19;94542.13;;;11.66;40.93
57594;BME280;43423;46.510;6.686;2024-03-29T05:50:44;94550.16;;;11.77;40.66
57594;BME280;43423;46.510;6.686;2024-03-29T05:53:10;94552.59;;;11.94;40.28
57594;BME280;43423;46.510;6.686;2024-03-29T05:55:36;94544.63;;;11.90;41.92
57594;BME280;43423;46.510;6.686;2024-03-29T05:58:02;94540.75;;;11.86;42.75
57594;BME280;43423;46.510;6.686;2024-03-29T06:00:28;94538.06;;;11.93;42.85
57594;BME280;43423;46.510;6.686;2024-03-29T06:02:54;94535.72;;;11.97;43.36
57594;BME280;43423;46.510;6.686;2024-03-29T06:05:20;94515.16;;;11.98;44.13
57594;BME280;43423;46.510;6.686;2024-03-29T06:07:46;94531.59;;;11.91;43.86
57594;BME280;43423;46.510;6.686;2024-03-29T06:10:11;94526.19;;;11.98;44.58
57594;BME280;43423;46.510;6.686;2024-03-29T06:12:37;94523.88;;;11.89;43.66
57594;BME280;43423;46.510;6.686;2024-03-29T06:15:06;94527.25;;;11.95;43.77
57594;BME280;43423;46.510;6.686;2024-03-29T06:17:50;94526.47;;;12.08;44.97
57594;BME280;43423;46.510;6.686;2024-03-29T06:20:16;94533.69;;;12.11;44.15
57594;BME280;43423;46.510;6.686;2024-03-29T06:22:42;94537.41;;;12.00;44.20
57594;BME280;43423;46.510;6.686;2024-03-29T06:25:08;94532.13;;;12.02;44.42
57594;BME280;43423;46.510;6.686;2024-03-29T06:27:35;94532.19;;;12.10;44.96
57594;BME280;43423;46.510;6.686;2024-03-29T06:30:02;94536.44;;;12.11;44.65
57594;BME280;43423;46.510;6.686;2024-03-29T06:32:29;94545.56;;;12.06;46.07
57594;BME280;43423;46.510;6.686;2024-03-29T06:34:55;94536.47;;;11.98;45.61
57594;BME280;43423;46.510;6.686;2024-03-29T06:37:21;94537.53;;;11.95;45.13
57594;BME280;43423;46.510;6.686;2024-03-29T06:39:48;94541.00;;;12.09;44.48
57594;BME280;43423;46.510;6.686;2024-03-29T06:42:13;94541.50;;;12.07;45.08
57594;BME280;43423;46.510;6.686;2024-03-29T06:44:39;94535.63;;;12.24;45.66
57594;BME280;43423;46.510;6.686;2024-03-29T06:47:05;94552.03;;;12.09;45.43
57594;BME280;43423;46.510;6.686;2024-03-29T06:49:31;94550.91;;;12.25;45.80
57594;BME280;43423;46.510;6.686;2024-03-29T06:51:58;94562.53;;;12.31;46.23
57594;BME280;43423;46.510;6.686;2024-03-29T06:54:25;94565.63;;;12.27;46.04
57594;BME280;43423;46.510;6.686;2024-03-29T06:56:55;94564.75;;;12.33;46.15
57594;BME280;43423;46.510;6.686;2024-03-29T06:59:21;94558.06;;;12.41;45.74
57594;BME280;43423;46.510;6.686;2024-03-29T07:01:47;94574.59;;;12.41;45.39
57594;BME280;43423;46.510;6.686;2024-03-29T07:04:13;94592.78;;;12.44;44.88
57594;BME280;43423;46.510;6.686;2024-03-29T07:06:39;94595.81;;;12.54;48.15
57594;BME280;43423;46.510;6.686;2024-03-29T07:09:08;94589.09;;;12.42;49.90
57594;BME280;43423;46.510;6.686;2024-03-29T07:11:35;94592.19;;;12.38;49.84
57594;BME280;43423;46.510;6.686;2024-03-29T07:14:01;94604.16;;;12.41;49.87
57594;BME280;43423;46.510;6.686;2024-03-29T07:16:26;94599.81;;;12.32;49.21
57594;BME280;43423;46.510;6.686;2024-03-29T07:18:52;94600.31;;;12.44;47.47
57594;BME280;43423;46.510;6.686;2024-03-29T07:21:17;94605.38;;;12.53;48.63
57594;BME280;43423;46.510;6.686;2024-03-29T07:23:44;94591.41;;;12.51;48.05
57594;BME280;43423;46.510;6.686;2024-03-29T07:26:09;94588.72;;;12.58;47.21
57594;BME280;43423;46.510;6.686;2024-03-29T07:28:37;94595.91;;;12.62;46.43
57594;BME280;43423;46.510;6.686;2024-03-29T07:31:07;94604.72;;;12.60;46.41
57594;BME280;43423;46.510;6.686;2024-03-29T07:33:33;94586.97;;;12.69;46.22
57594;BME280;43423;46.510;6.686;2024-03-29T07:35:58;94573.97;;;12.77;47.95
57594;BME280;43423;46.510;6.686;2024-03-29T07:38:24;94585.03;;;12.77;47.04
57594;BME280;43423;46.510;6.686;2024-03-29T07:40:53;94603.47;;;12.82;46.18
57594;BME280;43423;46.510;6.686;2024-03-29T07:43:21;94593.34;;;12.84;46.10
57594;BME280;43423;46.510;6.686;2024-03-29T07:45:47;94594.91;;;12.93;46.66
57594;BME280;43423;46.510;6.686;2024-03-29T07:48:15;94596.78;;;12.98;48.18
57594;BME280;43423;46.510;6.686;2024-03-29T07:50:42;94606.91;;;12.96;48.87
57594;BME280;43423;46.510;6.686;2024-03-29T07:53:08;94618.66;;;12.96;47.55
57594;BME280;43423;46.510;6.686;2024-03-29T07:55:42;94603.25;;;13.01;47.16
57594;BME280;43423;46.510;6.686;2024-03-29T07:58:08;94609.31;;;12.99;48.36
57594;BME280;43423;46.510;6.686;2024-03-29T08:00:38;94622.41;;;12.85;49.89
57594;BME280;43423;46.510;6.686;2024-03-29T08:03:04;94616.91;;;12.65;51.70
57594;BME280;43423;46.510;6.686;2024-03-29T08:05:30;94618.47;;;11.92;52.43
57594;BME280;43423;46.510;6.686;2024-03-29T08:07:55;94630.84;;;12.12;52.35
57594;BME280;43423;46.510;6.686;2024-03-29T08:10:21;94626.25;;;12.14;52.74
57594;BME280;43423;46.510;6.686;2024-03-29T08:12:47;94631.66;;;12.20;54.39
57594;BME280;43423;46.510;6.686;2024-03-29T08:15:12;94630.38;;;12.34;53.32
57594;BME280;43423;46.510;6.686;2024-03-29T08:17:38;94641.94;;;12.19;54.01
57594;BME280;43423;46.510;6.686;2024-03-29T08:20:04;94632.59;;;12.22;54.87
57594;BME280;43423;46.510;6.686;2024-03-29T08:22:30;94636.94;;;12.31;56.19
57594;BME280;43423;46.510;6.686;2024-03-29T08:24:59;94641.84;;;12.25;57.24
57594;BME280;43423;46.510;6.686;2024-03-29T08:27:28;94637.56;;;12.24;54.29
57594;BME280;43423;46.510;6.686;2024-03-29T08:29:54;94643.34;;;12.13;57.12
57594;BME280;43423;46.510;6.686;2024-03-29T08:32:20;94634.72;;;12.16;56.02
57594;BME280;43423;46.510;6.686;2024-03-29T08:34:46;94637.81;;;12.26;57.54
57594;BME280;43423;46.510;6.686;2024-03-29T08:37:12;94631.72;;;12.41;58.12
57594;BME280;43423;46.510;6.686;2024-03-29T08:39:37;94642.56;;;12.25;56.32
57594;BME280;43423;46.510;6.686;2024-03-29T08:42:04;94638.84;;;12.36;57.23
57594;BME280;43423;46.510;6.686;2024-03-29T08:44:31;94632.13;;;12.45;61.58
57594;BME280;43423;46.510;6.686;2024-03-29T08:46:57;94642.56;;;12.60;61.71
57594;BME280;43423;46.510;6.686;2024-03-29T08:49:24;94625.38;;;12.67;61.03
57594;BME280;43423;46.510;6.686;2024-03-29T08:51:50;94621.47;;;12.83;61.06
57594;BME280;43423;46.510;6.686;2024-03-29T08:54:15;94622.97;;;12.84;61.44
57594;BME280;43423;46.510;6.686;2024-03-29T08:56:41;94632.97;;;12.95;60.89
57594;BME280;43423;46.510;6.686;2024-03-29T08:59:07;94633.84;;;13.10;61.24
57594;BME280;43423;46.510;6.686;2024-03-29T09:01:41;94636.91;;;13.20;64.14
57594;BME280;43423;46.510;6.686;2024-03-29T09:04:07;94651.38;;;13.34;63.63
57594;BME280;43423;46.510;6.686;2024-03-29T09:06:37;94655.50;;;13.20;60.74
57594;BME280;43423;46.510;6.686;2024-03-29T09:09:04;94657.63;;;13.34;61.32
57594;BME280;43423;46.510;6.686;2024-03-29T09:11:30;94664.97;;;13.32;59.92
57594;BME280;43423;46.510;6.686;2024-03-29T09:13:56;94666.44;;;13.33;59.32
57594;BME280;43423;46.510;6.686;2024-03-29T09:16:27;94661.03;;;13.20;57.27
57594;BME280;43423;46.510;6.686;2024-03-29T09:18:56;94654.34;;;13.36;62.35
57594;BME280;43423;46.510;6.686;2024-03-29T09:21:22;94647.38;;;13.01;59.59
57594;BME280;43423;46.510;6.686;2024-03-29T09:23:48;94654.41;;;13.23;60.71
57594;BME280;43423;46.510;6.686;2024-03-29T09:26:16;94658.50;;;13.08;61.83
57594;BME280;43423;46.510;6.686;2024-03-29T09:28:42;94651.75;;;13.17;62.21
57594;BME280;43423;46.510;6.686;2024-03-29T09:31:07;94658.72;;;13.31;60.78
57594;BME280;43423;46.510;6.686;2024-03-29T09:33:33;94665.38;;;13.36;60.01
57594;BME280;43423;46.510;6.686;2024-03-29T09:35:59;94663.94;;;13.43;58.48
57594;BME280;43423;46.510;6.686;2024-03-29T09:38:26;94655.41;;;13.33;57.09
57594;BME280;43423;46.510;6.686;2024-03-29T09:41:21;94658.81;;;13.47;57.07
57594;BME280;43423;46.510;6.686;2024-03-29T09:43:51;94668.25;;;13.51;58.72
57594;BME280;43423;46.510;6.686;2024-03-29T09:46:20;94676.44;;;13.64;56.60
57594;BME280;43423;46.510;6.686;2024-03-29T09:48:47;94671.81;;;13.59;59.23
57594;BME280;43423;46.510;6.686;2024-03-29T09:51:14;94663.41;;;13.73;58.23
57594;BME280;43423;46.510;6.686;2024-03-29T09:53:42;94658.13;;;14.11;58.19
57594;BME280;43423;46.510;6.686;2024-03-29T09:56:09;94656.69;;;14.69;54.18
57594;BME280;43423;46.510;6.686;2024-03-29T09:58:36;94662.28;;;14.84;57.40
57594;BME280;43423;46.510;6.686;2024-03-29T10:01:04;94645.09;;;14.70;55.38
57594;BME280;43423;46.510;6.686;2024-03-29T10:03:31;94639.72;;;14.65;60.17
57594;BME280;43423;46.510;6.686;2024-03-29T10:06:01;94633.72;;;15.12;52.45
57594;BME280;43423;46.510;6.686;2024-03-29T10:08:28;94639.25;;;14.97;52.66
57594;BME280;43423;46.510;6.686;2024-03-29T10:10:56;94639.25;;;14.97;53.81
57594;BME280;43423;46.510;6.686;2024-03-29T10:13:22;94628.00;;;14.95;58.93
57594;BME280;43423;46.510;6.686;2024-03-29T10:15:51;94641.25;;;14.81;55.85
57594;BME280;43423;46.510;6.686;2024-03-29T10:18:19;94635.38;;;14.33;53.93
57594;BME280;43423;46.510;6.686;2024-03-29T10:20:59;94631.00;;;14.45;56.49
57594;BME280;43423;46.510;6.686;2024-03-29T10:23:25;94642.47;;;14.57;57.98
57594;BME280;43423;46.510;6.686;2024-03-29T10:25:51;94629.59;;;14.67;60.41
57594;BME280;43423;46.510;6.686;2024-03-29T10:28:18;94632.56;;;14.69;56.80
57594;BME280;43423;46.510;6.686;2024-03-29T10:30:44;94641.81;;;14.87;56.73
57594;BME280;43423;46.510;6.686;2024-03-29T10:33:10;94646.94;;;14.75;57.73
57594;BME280;43423;46.510;6.686;2024-03-29T10:35:35;94645.69;;;14.92;56.52
57594;BME280;43423;46.510;6.686;2024-03-29T10:38:04;94640.16;;;14.92;55.65
57594;BME280;43423;46.510;6.686;2024-03-29T10:40:30;94650.88;;;14.95;60.59
57594;BME280;43423;46.510;6.686;2024-03-29T10:42:56;94642.19;;;14.91;56.09
57594;BME280;43423;46.510;6.686;2024-03-29T10:45:22;94643.47;;;14.98;60.55
57594;BME280;43423;46.510;6.686;2024-03-29T10:47:49;94637.59;;;15.24;63.13
57594;BME280;43423;46.510;6.686;2024-03-29T10:50:17;94636.09;;;15.54;60.49
57594;BME280;43423;46.510;6.686;2024-03-29T10:52:45;94641.66;;;15.61;56.41
57594;BME280;43423;46.510;6.686;2024-03-29T10:55:11;94631.69;;;15.51;57.85
57594;BME280;43423;46.510;6.686;2024-03-29T10:57:41;94627.81;;;15.69;61.87
57594;BME280;43423;46.510;6.686;2024-03-29T11:00:11;94633.84;;;15.98;59.14
57594;BME280;43423;46.510;6.686;2024-03-29T11:02:58;94614.06;;;15.94;56.56
57594;BME280;43423;46.510;6.686;2024-03-29T11:05:30;94620.09;;;16.23;58.27
57594;BME280;43423;46.510;6.686;2024-03-29T11:07:58;94619.78;;;16.52;47.05
57594;BME280;43423;46.510;6.686;2024-03-29T11:10:33;94619.28;;;16.78;52.11
57594;BME280;43423;46.510;6.686;2024-03-29T11:15:56;94627.31;;;16.59;54.32
57594;BME280;43423;46.510;6.686;2024-03-29T11:18:22;94617.13;;;16.69;53.66
57594;BME280;43423;46.510;6.686;2024-03-29T11:20:50;94617.91;;;16.94;51.06
57594;BME280;43423;46.510;6.686;2024-03-29T11:23:18;94616.16;;;17.07;46.36
57594;BME280;43423;46.510;6.686;2024-03-29T11:25:46;94627.28;;;17.07;46.86
57594;BME280;43423;46.510;6.686;2024-03-29T11:28:15;94621.41;;;17.20;48.79
57594;BME280;43423;46.510;6.686;2024-03-29T11:30:50;94620.28;;;17.48;49.38
57594;BME280;43423;46.510;6.686;2024-03-29T11:33:33;94615.63;;;17.68;50.56
57594;BME280;43423;46.510;6.686;2024-03-29T11:36:22;94605.47;;;17.88;48.30
57594;BME280;43423;46.510;6.686;2024-03-29T11:38:53;94602.09;;;18.24;51.05
57594;BME280;43423;46.510;6.686;2024-03-29T11:41:26;94607.66;;;18.41;48.64
57594;BME280;43423;46.510;6.686;2024-03-29T11:43:53;94600.41;;;18.73;48.57
57594;BME280;43423;46.510;6.686;2024-03-29T11:46:20;94609.06;;;18.77;47.05
57594;BME280;43423;46.510;6.686;2024-03-29T11:48:46;94602.22;;;18.87;46.30
57594;BME280;43423;46.510;6.686;2024-03-29T11:51:17;94599.53;;;18.80;45.24
57594;BME280;43423;46.510;6.686;2024-03-29T11:53:44;94599.53;;;18.80;43.45
57594;BME280;43423;46.510;6.686;2024-03-29T11:56:10;94597.06;;;18.84;47.95
57594;BME280;43423;46.510;6.686;2024-03-29T11:58:37;94578.69;;;18.98;47.42
57594;BME280;43423;46.510;6.686;2024-03-29T12:01:04;94585.97;;;18.93;48.20
57594;BME280;43423;46.510;6.686;2024-03-29T12:03:31;94583.97;;;19.04;47.67
57594;BME280;43423;46.510;6.686;2024-03-29T12:05:59;94570.31;;;18.98;47.89
57594;BME280;43423;46.510;6.686;2024-03-29T12:08:31;94573.78;;;18.62;47.59
57594;BME280;43423;46.510;6.686;2024-03-29T12:10:58;94576.19;;;18.48;48.02
57594;BME280;43423;46.510;6.686;2024-03-29T12:13:24;94566.06;;;18.43;47.50
57594;BME280;43423;46.510;6.686;2024-03-29T12:15:50;94553.13;;;18.82;46.58
57594;BME280;43423;46.510;6.686;2024-03-29T12:18:15;94561.63;;;18.84;45.79
57594;BME280;43423;46.510;6.686;2024-03-29T12:20:42;94556.19;;;18.86;47.76
57594;BME280;43423;46.510;6.686;2024-03-29T12:23:12;94550.38;;;19.02;46.16
57594;BME280;43423;46.510;6.686;2024-03-29T12:25:39;94559.25;;;19.17;47.95
57594;BME280;43423;46.510;6.686;2024-03-29T12:28:05;94574.13;;;19.39;46.29
57594;BME280;43423;46.510;6.686;2024-03-29T12:30:31;94563.13;;;19.41;45.85
57594;BME280;43423;46.510;6.686;2024-03-29T12:33:05;94555.81;;;19.56;47.83
57594;BME280;43423;46.510;6.686;2024-03-29T12:35:33;94565.44;;;19.91;46.42
57594;BME280;43423;46.510;6.686;2024-03-29T12:37:59;94557.16;;;19.64;45.26
57594;BME280;43423;46.510;6.686;2024-03-29T12:40:27;94572.44;;;19.73;44.36
57594;BME280;43423;46.510;6.686;2024-03-29T12:42:56;94558.34;;;19.61;42.19
57594;BME280;43423;46.510;6.686;2024-03-29T12:45:24;94564.53;;;19.69;44.51
57594;BME280;43423;46.510;6.686;2024-03-29T12:47:50;94562.56;;;19.52;45.31
57594;BME280;43423;46.510;6.686;2024-03-29T12:50:24;94563.28;;;19.43;44.43
57594;BME280;43423;46.510;6.686;2024-03-29T12:52:53;94558.50;;;19.63;47.43
57594;BME280;43423;46.510;6.686;2024-03-29T12:55:19;94552.91;;;19.63;45.00
57594;BME280;43423;46.510;6.686;2024-03-29T12:57:45;94550.00;;;19.80;44.59
57594;BME280;43423;46.510;6.686;2024-03-29T13:00:11;94549.69;;;19.96;45.93
57594;BME280;43423;46.510;6.686;2024-03-29T13:02:37;94549.13;;;20.07;45.80
57594;BME280;43423;46.510;6.686;2024-03-29T13:05:06;94548.81;;;20.03;44.19